createdAt,value
2023-03-26T08:27:18.775Z,39.83
2023-03-26T08:30:13.658Z,39.46
2023-03-26T08:33:00.205Z,39.79
2023-03-26T08:35:45.830Z,39.48
2023-03-26T08:38:30.917Z,39.36
2023-03-26T08:41:19.402Z,39.66
2023-03-26T08:44:22.306Z,39.34
2023-03-26T08:47:19.953Z,39.27
2023-03-26T08:50:23.422Z,39.40
2023-03-26T08:53:02.060Z,39.60
2023-03-26T08:55:35.065Z,39.29
2023-03-26T08:58:02.833Z,39.06
2023-03-26T09:00:37.639Z,39.18
2023-03-26T09:03:07.877Z,39.12
2023-03-26T09:05:53.183Z,39.45
2023-03-26T09:08:22.518Z,39.23
2023-03-26T09:11:07.482Z,39.89
2023-03-26T09:13:52.770Z,39.65
2023-03-26T09:16:22.194Z,40.11
2023-03-26T09:19:07.302Z,39.95
2023-03-26T09:21:40.340Z,39.62
2023-03-26T09:24:10.966Z,39.73
2023-03-26T09:26:56.212Z,39.74
2023-03-26T09:29:25.601Z,39.47
2023-03-26T09:32:10.990Z,39.44
2023-03-26T09:34:58.285Z,39.57
2023-03-26T10:15:54.313Z,40.07
2023-03-26T10:18:27.901Z,40.51
2023-03-26T10:20:59.174Z,39.98
2023-03-26T10:23:41.586Z,40.68
2023-03-26T10:26:11.235Z,40.49
2023-03-26T10:28:42.175Z,40.31
2023-03-26T10:31:24.937Z,40.12
2023-03-26T10:33:52.350Z,40.42
2023-03-26T10:36:26.735Z,40.06
2023-03-26T10:39:03.152Z,40.39
2023-03-26T10:41:59.813Z,40.59
2023-03-26T10:44:43.358Z,39.88
2023-03-26T10:47:23.730Z,40.39
2023-03-26T10:50:08.768Z,40.32
2023-03-26T10:52:37.974Z,40.31
2023-03-26T10:55:04.584Z,39.92
2023-03-26T10:57:36.357Z,39.91
2023-03-26T11:00:13.339Z,39.89
2023-03-26T11:02:43.306Z,40.19
2023-03-26T11:05:16.093Z,39.85
2023-03-26T11:07:44.532Z,39.65
2023-03-26T11:10:17.163Z,39.72
2023-03-26T11:12:44.899Z,39.64
2023-03-26T11:15:20.229Z,39.47
2023-03-26T11:17:59.198Z,39.32
2023-03-26T11:20:41.142Z,39.91
2023-03-26T11:23:07.638Z,39.64
2023-03-26T11:25:36.917Z,39.74
2023-03-26T11:28:21.877Z,39.76
2023-03-26T11:30:49.250Z,39.43
2023-03-26T11:33:19.876Z,38.84
2023-03-26T11:35:47.625Z,39.49
2023-03-26T11:38:19.543Z,39.60
2023-03-26T11:40:50.556Z,39.75
2023-03-26T11:43:29.079Z,39.43
2023-03-26T11:45:55.869Z,39.47
2023-03-26T11:48:27.664Z,39.49
2023-03-26T11:51:11.582Z,38.86
2023-03-26T11:53:40.459Z,38.99
2023-03-26T11:56:16.055Z,38.85
2023-03-26T11:58:52.800Z,39.21
2023-03-26T12:01:22.741Z,39.97
2023-03-26T12:04:18.794Z,39.41
2023-03-26T12:06:57.498Z,38.65
2023-03-26T12:09:24.321Z,38.70
2023-03-26T12:11:52.220Z,38.46
2023-03-26T12:14:19.703Z,38.59
2023-03-26T12:17:01.723Z,38.61
2023-03-26T12:19:33.652Z,38.13
2023-03-26T12:22:00.253Z,38.09
2023-03-26T12:24:29.301Z,38.01
2023-03-26T12:27:06.921Z,38.14
2023-03-26T12:29:34.468Z,37.84
2023-03-26T12:32:06.019Z,37.79
2023-03-26T12:34:36.428Z,37.20
2023-03-26T12:37:04.069Z,37.21
2023-03-26T12:40:07.999Z,37.17
2023-03-26T12:44:46.498Z,37.63
2023-03-26T12:45:13.267Z,37.31
2023-03-26T12:47:57.927Z,37.40
2023-03-26T12:50:34.258Z,37.45
2023-03-26T12:53:14.809Z,37.42
2023-03-26T12:56:01.334Z,37.30
2023-03-26T12:58:39.505Z,37.49
2023-03-26T13:01:06.556Z,37.34
2023-03-26T13:03:44.243Z,37.34
2023-03-26T13:07:01.430Z,37.14
2023-03-26T13:09:46.955Z,37.15
2023-03-26T13:12:32.013Z,37.08
2023-03-26T13:15:02.213Z,37.08
2023-03-26T13:17:50.766Z,37.10
2023-03-26T13:20:24.697Z,37.15
2023-03-26T13:22:55.313Z,36.96
2023-03-26T13:25:36.855Z,36.87
2023-03-26T13:28:03.319Z,36.86
2023-03-26T13:30:48.219Z,37.04
2023-03-26T13:33:14.711Z,36.85
2023-03-26T13:35:48.993Z,36.66
2023-03-26T13:38:20.401Z,36.70
2023-03-26T13:40:49.442Z,36.74
2023-03-26T13:43:22.088Z,36.85
2023-03-26T13:45:48.626Z,36.82
2023-03-26T13:48:19.495Z,36.87
2023-03-26T13:50:49.812Z,36.55
2023-03-26T13:53:43.454Z,36.34
2023-03-26T13:56:10.919Z,36.27
2023-03-26T13:58:39.000Z,36.32
2023-03-26T14:10:18.930Z,35.63
2023-03-26T14:12:52.479Z,35.82
2023-03-26T14:15:29.994Z,36.07
2023-03-26T14:18:01.339Z,36.25
2023-03-26T14:20:41.349Z,36.12
2023-03-26T14:23:31.202Z,36.65
2023-03-26T14:26:06.852Z,36.34
2023-03-26T14:28:52.061Z,36.65
2023-03-26T14:31:19.552Z,36.59
2023-03-26T14:34:02.681Z,36.53
2023-03-26T14:36:34.959Z,36.55
2023-03-26T14:39:11.449Z,36.87
2023-03-26T14:41:50.511Z,36.71
2023-03-26T14:44:48.577Z,36.90
2023-03-26T14:47:19.641Z,36.69
2023-03-26T14:49:53.480Z,36.65
2023-03-26T14:52:20.349Z,36.34
2023-03-26T14:54:47.690Z,36.52
2023-03-26T14:57:21.518Z,36.68
2023-03-26T14:59:56.544Z,36.38
2023-03-26T15:02:38.254Z,36.84
2023-03-26T15:05:23.702Z,36.53
2023-03-26T15:08:12.576Z,37.12
2023-03-26T15:10:42.106Z,37.09
2023-03-26T15:13:20.386Z,37.47
2023-03-26T15:15:54.035Z,37.29
2023-03-26T15:21:04.526Z,36.65
2023-03-26T15:23:38.419Z,36.85
2023-03-26T15:26:09.801Z,36.90
2023-03-26T15:28:55.245Z,36.90
2023-03-26T15:31:24.612Z,36.78
2023-03-26T15:33:54.030Z,37.02
2023-03-26T15:36:28.221Z,37.01
2023-03-26T15:39:18.201Z,36.97
2023-03-26T15:41:59.948Z,37.11
2023-03-26T15:44:40.964Z,37.56
2023-03-26T15:47:37.997Z,37.21
2023-03-26T15:50:08.218Z,37.07
2023-03-26T15:52:53.690Z,37.21
2023-03-26T15:55:31.106Z,37.11
2023-03-26T15:57:57.898Z,37.28
2023-03-26T16:00:43.739Z,37.37
2023-03-26T16:03:10.288Z,37.46
2023-03-26T16:05:47.466Z,37.13
2023-03-26T16:08:26.718Z,37.56
2023-03-26T16:11:00.030Z,37.86
2023-03-26T16:13:35.000Z,37.39
2023-03-26T16:16:04.615Z,37.79
2023-03-26T16:18:35.942Z,37.46
2023-03-26T16:21:31.163Z,37.82
2023-03-26T16:24:02.117Z,37.81
2023-03-26T16:26:31.595Z,37.86
2023-03-26T16:29:18.379Z,37.75
2023-03-26T16:32:03.858Z,38.31
2023-03-26T16:34:50.690Z,38.07
2023-03-26T16:37:36.455Z,38.06
2023-03-26T16:40:22.549Z,38.19
2023-03-26T16:43:09.499Z,38.03
2023-03-26T16:45:38.124Z,37.94
2023-03-26T16:48:20.940Z,38.18
2023-03-26T16:50:57.826Z,38.06
2023-03-26T16:53:43.385Z,38.10
2023-03-26T16:56:17.788Z,37.93
2023-03-26T16:58:47.932Z,38.18
2023-03-26T17:01:21.343Z,37.88
2023-03-26T17:03:53.135Z,37.92
2023-03-26T17:06:28.840Z,38.26
2023-03-26T17:09:13.958Z,37.99
2023-03-26T17:11:44.107Z,38.34
2023-03-26T17:14:18.169Z,38.22
2023-03-26T17:16:46.052Z,38.45
2023-03-26T17:19:33.871Z,37.88
2023-03-26T17:22:03.796Z,38.35
2023-03-26T17:24:47.822Z,37.88
2023-03-26T17:27:47.080Z,38.27
2023-03-26T17:30:22.958Z,38.16
2023-03-26T17:32:54.188Z,38.40
2023-03-26T17:35:39.502Z,38.00
2023-03-26T17:38:18.033Z,38.15
2023-03-26T17:40:46.484Z,38.03
2023-03-26T17:43:14.268Z,38.05
2023-03-26T17:45:41.986Z,37.91
2023-03-26T17:48:10.466Z,38.36
2023-03-26T17:50:54.255Z,38.12
2023-03-26T17:53:23.599Z,38.48
2023-03-26T17:55:51.273Z,38.29
2023-03-26T17:58:28.573Z,38.06
2023-03-26T18:01:02.047Z,38.43
2023-03-26T18:03:36.016Z,38.40
2023-03-26T18:06:07.070Z,38.26
2023-03-26T18:08:52.265Z,38.43
2023-03-26T18:11:28.092Z,38.17
2023-03-26T18:13:54.736Z,38.34
2023-03-26T18:16:26.521Z,38.37
2023-03-26T18:19:02.844Z,38.04
2023-03-26T18:21:39.402Z,38.09
2023-03-26T18:24:06.914Z,38.28
2023-03-26T18:26:36.679Z,37.97
2023-03-26T18:29:11.759Z,38.27
2023-03-26T18:31:48.175Z,38.37
2023-03-26T18:34:21.278Z,38.00
2023-03-26T18:36:57.869Z,37.94
2023-03-26T18:39:24.436Z,38.04
2023-03-26T18:41:50.905Z,38.15
2023-03-26T18:44:17.927Z,38.19
2023-03-26T18:46:44.576Z,38.16
2023-03-26T18:49:14.671Z,38.09
2023-03-26T18:51:55.943Z,38.36
2023-03-26T18:54:29.291Z,38.41
2023-03-26T18:56:56.163Z,38.14
2023-03-26T18:59:30.808Z,38.26
2023-03-26T19:02:04.170Z,38.08
2023-03-26T19:04:33.002Z,37.89
2023-03-26T19:07:00.244Z,38.28
2023-03-26T19:09:32.152Z,38.37
2023-03-26T19:12:11.530Z,37.80
2023-03-26T19:14:50.976Z,37.80
2023-03-26T19:17:17.684Z,37.88
2023-03-26T19:19:44.267Z,38.00
2023-03-26T19:22:11.403Z,37.90
2023-03-26T19:24:38.288Z,38.08
2023-03-26T19:27:12.609Z,38.25
2023-03-26T19:29:39.366Z,38.34
2023-03-26T19:32:16.385Z,38.30
2023-03-26T19:34:43.371Z,37.93
2023-03-26T19:37:21.277Z,38.10
2023-03-26T19:39:55.480Z,38.10
2023-03-26T19:42:26.769Z,37.68
2023-03-26T19:44:53.545Z,37.82
2023-03-26T19:47:20.185Z,37.76
2023-03-26T19:49:53.088Z,37.73
2023-03-26T19:52:38.336Z,37.60
2023-03-26T19:55:10.058Z,37.71
2023-03-26T19:57:37.877Z,37.88
2023-03-26T20:00:14.940Z,37.73
2023-03-26T20:02:42.341Z,37.82
2023-03-26T20:05:25.327Z,38.45
2023-03-26T20:07:52.104Z,38.16
2023-03-26T20:10:18.697Z,39.38
2023-03-26T20:12:45.639Z,39.95
2023-03-26T20:15:22.399Z,40.12
2023-03-26T20:17:57.912Z,40.63
2023-03-26T20:20:25.069Z,40.84
2023-03-26T20:22:55.767Z,41.21
2023-03-26T20:25:49.768Z,41.44
2023-03-26T20:28:19.008Z,41.70
2023-03-26T20:30:49.197Z,42.02
2023-03-26T20:33:20.656Z,42.11
2023-03-26T20:35:50.341Z,42.13
2023-03-26T20:38:17.099Z,42.62
2023-03-26T20:40:44.834Z,42.83
2023-03-26T20:43:12.279Z,42.89
2023-03-26T20:45:38.874Z,43.08
2023-03-26T20:48:05.462Z,43.13
2023-03-26T20:50:35.734Z,43.42
2023-03-26T20:53:06.109Z,43.69
2023-03-26T20:55:32.673Z,43.37
2023-03-26T20:57:59.495Z,43.84
2023-03-26T21:00:26.073Z,43.91
2023-03-26T21:02:53.725Z,43.91
2023-03-26T21:05:26.903Z,43.98
2023-03-26T21:08:01.365Z,43.83
2023-03-26T21:10:29.677Z,44.00
2023-03-26T21:12:57.213Z,43.74
2023-03-26T21:15:24.374Z,44.30
2023-03-26T21:17:54.927Z,44.08
2023-03-26T21:20:25.350Z,44.26
2023-03-26T21:23:11.544Z,44.57
2023-03-26T21:25:40.810Z,44.65
2023-03-26T21:28:09.953Z,44.94
2023-03-26T21:30:36.868Z,44.84
2023-03-26T21:33:05.204Z,44.19
2023-03-26T21:35:32.214Z,44.44
2023-03-26T21:37:59.154Z,43.87
2023-03-26T21:40:26.210Z,43.98
2023-03-26T21:42:54.197Z,43.56
2023-03-26T21:45:21.186Z,43.96
2023-03-26T21:47:47.989Z,44.23
2023-03-26T21:50:18.886Z,43.79
2023-03-26T21:52:48.493Z,44.04
2023-03-26T21:55:16.611Z,44.35
2023-03-26T21:57:48.915Z,45.57
2023-03-26T22:00:18.371Z,45.51
2023-03-26T22:02:51.145Z,45.44
2023-03-26T22:05:21.509Z,45.74
2023-03-26T22:07:52.900Z,45.75
2023-03-26T22:10:19.437Z,45.44
2023-03-26T22:12:52.996Z,45.46
2023-03-26T22:15:19.957Z,45.54
2023-03-26T22:17:57.070Z,46.16
2023-03-26T22:20:27.972Z,46.07
2023-03-26T22:22:55.783Z,46.04
2023-03-26T22:25:23.121Z,46.01
2023-03-26T22:27:49.967Z,46.18
2023-03-26T22:30:17.079Z,46.20
2023-03-26T22:32:44.673Z,46.27
2023-03-26T22:35:11.356Z,46.10
2023-03-26T22:37:37.889Z,46.07
2023-03-26T22:40:08.295Z,45.71
2023-03-26T22:42:35.201Z,46.04
2023-03-26T22:45:01.883Z,46.06
2023-03-26T22:47:30.473Z,46.36
2023-03-26T22:49:57.224Z,45.76
2023-03-26T22:52:23.758Z,46.12
2023-03-26T22:54:50.283Z,46.23
2023-03-26T22:57:42.724Z,46.58
2023-03-26T23:00:27.826Z,46.10
2023-03-26T23:02:59.958Z,46.12
2023-03-26T23:05:27.666Z,46.02
2023-03-26T23:07:54.293Z,46.15
2023-03-26T23:10:21.670Z,46.47
2023-03-26T23:12:52.514Z,46.63
2023-03-26T23:15:24.029Z,46.50
2023-03-26T23:17:55.304Z,47.19
2023-03-26T23:20:39.106Z,46.67
2023-03-26T23:23:09.152Z,47.00
2023-03-26T23:25:36.560Z,46.99
2023-03-26T23:28:13.482Z,47.02
2023-03-26T23:30:40.053Z,46.36
2023-03-26T23:33:06.670Z,46.86
2023-03-26T23:35:33.300Z,46.67
2023-03-26T23:38:02.521Z,46.78
2023-03-26T23:40:29.227Z,46.61
2023-03-26T23:42:55.672Z,46.86
2023-03-26T23:45:22.590Z,46.57
2023-03-26T23:47:49.280Z,47.05
2023-03-26T23:50:16.474Z,46.75
2023-03-26T23:52:45.717Z,46.86
2023-03-26T23:55:12.244Z,46.78
2023-03-26T23:57:43.222Z,46.72
